createdAt,value
2022-09-21T00:00:54.977Z,4521
2022-09-21T00:01:54.973Z,3473
2022-09-21T00:03:55.156Z,3499
2022-09-21T00:04:54.951Z,4457
2022-09-21T00:05:54.959Z,2911
2022-09-21T00:06:54.964Z,4595
2022-09-21T00:08:55.119Z,4222
2022-09-21T00:09:55.009Z,4582
2022-09-21T00:10:54.948Z,4582
2022-09-21T00:11:58.133Z,3116
2022-09-21T00:13:55.427Z,3324
2022-09-21T00:14:54.956Z,4234
2022-09-21T00:15:54.955Z,3249
2022-09-21T00:16:55.009Z,4060
2022-09-21T00:18:55.155Z,3972
2022-09-21T00:19:54.970Z,4026
2022-09-21T00:20:54.955Z,2888
2022-09-21T00:21:54.974Z,4841
2022-09-21T00:23:55.142Z,4765
2022-09-21T00:24:54.954Z,3463
2022-09-21T00:25:54.932Z,4534
2022-09-21T00:26:54.958Z,3649
2022-09-21T00:28:55.168Z,4419
2022-09-21T00:29:54.976Z,4323
2022-09-21T00:30:54.927Z,4360
2022-09-21T00:31:54.953Z,3333
2022-09-21T00:33:55.163Z,4444
2022-09-21T00:34:54.959Z,3394
2022-09-21T00:35:54.976Z,3302
2022-09-21T00:36:54.988Z,4926
2022-09-21T00:38:55.161Z,4926
2022-09-21T00:39:54.990Z,4118
2022-09-21T00:40:54.968Z,3284
2022-09-21T00:41:54.932Z,3188
2022-09-21T00:43:55.173Z,4166
2022-09-21T00:44:54.978Z,4106
2022-09-21T00:45:55.018Z,4166
2022-09-21T00:46:54.937Z,5177
2022-09-21T00:48:55.139Z,5353
2022-09-21T00:49:54.963Z,4855
2022-09-21T00:50:54.965Z,4166
2022-09-21T00:51:54.947Z,4898
2022-09-21T00:53:55.157Z,5136
2022-09-21T00:54:54.978Z,4715
2022-09-21T00:55:54.982Z,3649
2022-09-21T00:56:54.985Z,4509
2022-09-21T00:58:55.230Z,3509
2022-09-21T00:59:54.977Z,4715
2022-09-21T01:00:54.966Z,4702
2022-09-21T01:01:55.000Z,4661
2022-09-21T01:03:55.173Z,4509
2022-09-21T01:04:54.952Z,4547
2022-09-21T01:05:54.977Z,3453
2022-09-21T01:06:54.946Z,3509
2022-09-21T01:08:55.149Z,3333
2022-09-21T01:09:54.953Z,4431
2022-09-21T01:10:54.992Z,4457
2022-09-21T01:11:54.976Z,4496
2022-09-21T01:13:55.266Z,4715
2022-09-21T01:14:54.996Z,3453
2022-09-21T01:15:54.963Z,3411
2022-09-21T01:16:55.006Z,4444
2022-09-21T01:18:55.153Z,4444
2022-09-21T01:19:54.978Z,4142
2022-09-21T01:20:54.979Z,3660
2022-09-21T01:21:54.945Z,3089
2022-09-21T01:23:55.159Z,4014
2022-09-21T01:24:54.990Z,3453
2022-09-21T01:25:54.988Z,3368
2022-09-21T01:26:54.985Z,3333
2022-09-21T01:28:55.190Z,4290
2022-09-21T01:29:54.997Z,3324
2022-09-21T01:30:54.999Z,4303
2022-09-21T01:31:55.081Z,3023
2022-09-21T01:33:55.182Z,3984
2022-09-21T01:34:54.989Z,3116
2022-09-21T01:35:55.000Z,4026
2022-09-21T01:36:54.965Z,4014
2022-09-21T01:38:55.167Z,3802
2022-09-21T01:39:54.985Z,3161
2022-09-21T01:40:54.998Z,4315
2022-09-21T01:41:54.986Z,4166
2022-09-21T01:43:55.162Z,4166
2022-09-21T01:44:54.998Z,4130
2022-09-21T01:45:55.005Z,4060
2022-09-21T01:46:54.990Z,3083
2022-09-21T01:48:55.186Z,3509
2022-09-21T01:49:54.968Z,4190
2022-09-21T01:50:54.997Z,4150
2022-09-21T01:51:55.002Z,3274
2022-09-21T01:53:55.173Z,4234
2022-09-21T01:54:54.974Z,3212
2022-09-21T01:55:54.967Z,4178
2022-09-21T01:56:54.965Z,4178
2022-09-21T01:58:55.198Z,4178
2022-09-21T01:59:54.996Z,3832
2022-09-21T02:00:55.046Z,4381
2022-09-21T02:01:55.036Z,4444
2022-09-21T02:03:55.203Z,4381
2022-09-21T02:04:55.028Z,2903
2022-09-21T02:05:54.972Z,3916
2022-09-21T02:06:54.986Z,3916
2022-09-21T02:08:55.198Z,3916
2022-09-21T02:09:55.017Z,4266
2022-09-21T02:10:55.008Z,3368
2022-09-21T02:11:54.982Z,3411
2022-09-21T02:13:55.240Z,4360
2022-09-21T02:14:55.008Z,3825
2022-09-21T02:15:55.003Z,4026
2022-09-21T02:16:55.008Z,3194
2022-09-21T02:18:55.209Z,5292
2022-09-21T02:19:55.003Z,5998
2022-09-21T02:20:55.010Z,5860
2022-09-21T02:21:54.995Z,4702
2022-09-21T02:23:55.179Z,3961
2022-09-21T02:24:55.010Z,4381
2022-09-21T02:25:55.005Z,2903
2022-09-21T02:26:55.013Z,4631
2022-09-21T02:28:55.249Z,3576
2022-09-21T02:29:55.010Z,4738
2022-09-21T02:30:54.991Z,4978
2022-09-21T02:31:55.028Z,3324
2022-09-21T02:33:55.197Z,3678
2022-09-21T02:34:55.027Z,4617
2022-09-21T02:35:55.016Z,3549
2022-09-21T02:36:55.022Z,4582
2022-09-21T02:38:55.196Z,4431
2022-09-21T02:39:55.007Z,4569
2022-09-21T02:40:55.027Z,3221
2022-09-21T02:41:54.989Z,4582
2022-09-21T02:43:55.257Z,4688
2022-09-21T02:44:55.017Z,4738
2022-09-21T02:45:54.987Z,3906
2022-09-21T02:46:55.052Z,4419
2022-09-21T02:48:55.202Z,4534
2022-09-21T02:49:54.995Z,4582
2022-09-21T02:50:55.015Z,3794
2022-09-21T02:51:55.022Z,4648
2022-09-21T02:53:55.206Z,4547
2022-09-21T02:54:55.047Z,3576
2022-09-21T02:55:56.543Z,3660
2022-09-21T02:56:55.006Z,5007
2022-09-21T02:58:55.219Z,3783
2022-09-21T02:59:55.002Z,3240
2022-09-21T03:00:55.048Z,4725
2022-09-21T03:01:55.028Z,3576
2022-09-21T03:03:55.230Z,4178
2022-09-21T03:04:55.014Z,4470
2022-09-21T03:05:55.003Z,4688
2022-09-21T03:06:54.999Z,4688
2022-09-21T03:08:55.214Z,4752
2022-09-21T03:09:55.022Z,3265
2022-09-21T03:10:55.042Z,3194
2022-09-21T03:11:55.004Z,3152
2022-09-21T03:13:55.281Z,4130
2022-09-21T03:14:55.029Z,4303
2022-09-21T03:15:55.068Z,4470
2022-09-21T03:16:55.027Z,3660
2022-09-21T03:18:55.237Z,3639
2022-09-21T03:19:55.035Z,4765
2022-09-21T03:20:55.043Z,4335
2022-09-21T03:21:55.042Z,3751
2022-09-21T03:23:55.207Z,3607
2022-09-21T03:24:55.032Z,2903
2022-09-21T03:25:55.041Z,3566
2022-09-21T03:26:55.044Z,3632
2022-09-21T03:28:55.283Z,4617
2022-09-21T03:29:56.786Z,4738
2022-09-21T03:30:55.023Z,4595
2022-09-21T03:31:55.017Z,4049
2022-09-21T03:33:55.209Z,3762
2022-09-21T03:34:55.036Z,3720
2022-09-21T03:35:55.053Z,3670
2022-09-21T03:36:55.008Z,3384
2022-09-21T03:38:55.221Z,4631
2022-09-21T03:39:55.040Z,3349
2022-09-21T03:40:55.052Z,3203
2022-09-21T03:41:55.016Z,4789
2022-09-21T03:43:55.303Z,4675
2022-09-21T03:44:55.074Z,3586
2022-09-21T03:45:55.064Z,4813
2022-09-21T03:46:55.012Z,4940
2022-09-21T03:48:55.239Z,4130
2022-09-21T03:49:55.050Z,3762
2022-09-21T03:50:55.042Z,3576
2022-09-21T03:51:55.029Z,4916
2022-09-21T03:53:55.243Z,4738
2022-09-21T03:54:55.051Z,4855
2022-09-21T03:55:55.069Z,3794
2022-09-21T03:56:55.033Z,3284
2022-09-21T03:58:55.258Z,3952
2022-09-21T03:59:55.043Z,3394
2022-09-21T04:00:55.058Z,3699
2022-09-21T04:01:55.059Z,3607
2022-09-21T04:03:55.226Z,4675
2022-09-21T04:04:55.066Z,3941
2022-09-21T04:05:55.080Z,4940
2022-09-21T04:06:55.048Z,4765
2022-09-21T04:08:55.230Z,3762
2022-09-21T04:09:55.052Z,5050
2022-09-21T04:10:55.060Z,3751
2022-09-21T04:11:55.062Z,4509
2022-09-21T04:13:55.239Z,3751
2022-09-21T04:14:55.060Z,3519
2022-09-21T04:15:55.127Z,4106
2022-09-21T04:16:55.069Z,3556
2022-09-21T04:18:55.226Z,4688
2022-09-21T04:19:55.063Z,3952
2022-09-21T04:20:55.032Z,5106
2022-09-21T04:21:55.069Z,3699
2022-09-21T04:23:55.241Z,4560
2022-09-21T04:24:55.061Z,3873
2022-09-21T04:25:55.093Z,4813
2022-09-21T04:26:55.063Z,4419
2022-09-21T04:28:55.459Z,5277
2022-09-21T04:29:55.059Z,4431
2022-09-21T04:30:55.085Z,5252
2022-09-21T04:31:55.077Z,5685
2022-09-21T04:33:55.240Z,4026
2022-09-21T04:34:55.039Z,5593
2022-09-21T04:35:55.065Z,6219
2022-09-21T04:36:55.063Z,4582
2022-09-21T04:38:55.275Z,4775
2022-09-21T04:39:55.062Z,7583
2022-09-21T04:40:55.069Z,5778
2022-09-21T04:41:55.063Z,4242
2022-09-21T04:43:55.320Z,5762
2022-09-21T04:44:55.071Z,4222
2022-09-21T04:45:55.112Z,6153
2022-09-21T04:46:55.068Z,4509
2022-09-21T04:48:55.241Z,5889
2022-09-21T04:49:55.071Z,3952
2022-09-21T04:50:55.095Z,5889
2022-09-21T04:51:55.070Z,5729
2022-09-21T04:53:55.271Z,5729
2022-09-21T04:54:54.980Z,4648
2022-09-21T04:55:55.070Z,6430
2022-09-21T04:56:55.108Z,6016
2022-09-21T04:58:55.336Z,4813
2022-09-21T04:59:55.075Z,6033
2022-09-21T05:00:55.044Z,4483
2022-09-21T05:01:55.079Z,5981
2022-09-21T05:03:55.284Z,3952
2022-09-21T05:04:55.082Z,5531
2022-09-21T05:05:55.072Z,4521
2022-09-21T05:06:55.124Z,6183
2022-09-21T05:08:55.282Z,6237
2022-09-21T05:09:55.048Z,4266
2022-09-21T05:10:55.053Z,5561
2022-09-21T05:11:55.080Z,4648
2022-09-21T05:13:55.285Z,5826
2022-09-21T05:14:55.089Z,5577
2022-09-21T05:15:55.093Z,4323
2022-09-21T05:16:55.091Z,4178
2022-09-21T05:18:55.247Z,5451
2022-09-21T05:19:55.082Z,4940
2022-09-21T05:20:55.048Z,1836
2022-09-21T05:21:55.063Z,5545
2022-09-21T05:23:55.279Z,5545
2022-09-21T05:24:55.093Z,5889
2022-09-21T05:25:55.083Z,4483
2022-09-21T05:26:55.090Z,4431
2022-09-21T05:28:55.326Z,5669
2022-09-21T05:29:55.090Z,5826
2022-09-21T05:31:13.983Z,5669
2022-09-21T05:31:55.089Z,3972
2022-09-21T05:33:55.286Z,4178
2022-09-21T05:34:55.089Z,5604
2022-09-21T05:35:55.099Z,5669
2022-09-21T05:36:55.061Z,5604
2022-09-21T05:38:55.262Z,5810
2022-09-21T05:39:55.108Z,6112
2022-09-21T05:40:55.326Z,5778
2022-09-21T05:41:55.096Z,4534
2022-09-21T05:43:55.346Z,5843
2022-09-21T05:44:55.103Z,4266
2022-09-21T05:45:55.083Z,5106
2022-09-21T05:46:56.306Z,3984
2022-09-21T05:48:55.312Z,4648
2022-09-21T05:49:55.097Z,3995
2022-09-21T05:50:55.101Z,5177
2022-09-21T05:51:55.069Z,5197
2022-09-21T05:53:55.304Z,3825
2022-09-21T05:54:55.095Z,5515
2022-09-21T05:55:55.090Z,4534
2022-09-21T05:56:55.062Z,5237
2022-09-21T05:58:55.271Z,5177
2022-09-21T05:59:55.131Z,3284
2022-09-21T06:00:55.107Z,4884
2022-09-21T06:01:55.071Z,5277
2022-09-21T06:03:55.290Z,5262
2022-09-21T06:04:55.090Z,3825
2022-09-21T06:05:55.101Z,4841
2022-09-21T06:06:55.089Z,5353
2022-09-21T06:08:55.316Z,4752
2022-09-21T06:09:55.087Z,5322
2022-09-21T06:10:55.111Z,4014
2022-09-21T06:11:55.080Z,4106
2022-09-21T06:13:55.322Z,5307
2022-09-21T06:14:55.106Z,3794
2022-09-21T06:15:55.103Z,5322
2022-09-21T06:16:55.113Z,4178
2022-09-21T06:18:55.280Z,5322
2022-09-21T06:19:55.084Z,5338
2022-09-21T06:20:55.113Z,6048
2022-09-21T06:21:55.104Z,5065
2022-09-21T06:23:55.293Z,4190
2022-09-21T06:24:55.082Z,5222
2022-09-21T06:25:58.398Z,4222
2022-09-21T06:26:55.107Z,5620
2022-09-21T06:28:55.293Z,4978
2022-09-21T06:29:55.151Z,4940
2022-09-21T06:30:55.174Z,5923
2022-09-21T06:31:55.106Z,4582
2022-09-21T06:33:55.321Z,5923
2022-09-21T06:34:55.116Z,5685
2022-09-21T06:35:55.122Z,5561
2022-09-21T06:36:55.133Z,4222
2022-09-21T06:38:55.357Z,5778
2022-09-21T06:39:55.113Z,5252
2022-09-21T06:40:55.126Z,3972
2022-09-21T06:41:55.091Z,4060
2022-09-21T06:43:55.397Z,5147
2022-09-21T06:44:55.117Z,3825
2022-09-21T06:45:55.153Z,4765
2022-09-21T06:46:55.120Z,4940
2022-09-21T06:48:55.306Z,3499
2022-09-21T06:49:55.113Z,4360
2022-09-21T06:50:55.122Z,5669
2022-09-21T06:51:55.121Z,4222
2022-09-21T06:53:55.311Z,3813
2022-09-21T06:54:55.114Z,5981
2022-09-21T06:55:55.145Z,4841
2022-09-21T06:56:59.339Z,5934
2022-09-21T06:58:55.320Z,5981
2022-09-21T06:59:55.098Z,5620
2022-09-21T07:00:55.204Z,5378
2022-09-21T07:01:55.236Z,4315
2022-09-21T07:03:55.339Z,4496
2022-09-21T07:04:55.100Z,5353
2022-09-21T07:05:55.116Z,3972
2022-09-21T07:06:55.132Z,5197
2022-09-21T07:10:07.529Z,5363
2022-09-21T07:10:55.149Z,5252
2022-09-21T07:11:55.133Z,5593
2022-09-21T07:13:55.371Z,5593
2022-09-21T07:14:55.163Z,3519
2022-09-21T07:15:55.138Z,5420
2022-09-21T07:16:55.155Z,3995
2022-09-21T07:18:55.308Z,5237
2022-09-21T07:19:55.172Z,4940
2022-09-21T07:20:55.146Z,5007
2022-09-21T07:21:55.141Z,3639
2022-09-21T07:23:55.329Z,4954
2022-09-21T07:24:55.143Z,4803
2022-09-21T07:25:55.144Z,4431
2022-09-21T07:26:55.134Z,3324
2022-09-21T07:28:55.365Z,4335
2022-09-21T07:29:55.136Z,4789
2022-09-21T07:30:55.137Z,3586
2022-09-21T07:31:55.142Z,3632
2022-09-21T07:33:55.319Z,3699
2022-09-21T07:34:55.124Z,3473
2022-09-21T07:35:55.115Z,5409
2022-09-21T07:36:55.113Z,4290
2022-09-21T07:38:55.306Z,3152
2022-09-21T07:39:55.114Z,3284
2022-09-21T07:40:55.165Z,4198
2022-09-21T07:41:55.151Z,4166
2022-09-21T07:43:55.416Z,4547
2022-09-21T07:45:03.792Z,3865
2022-09-21T07:45:55.178Z,3762
2022-09-21T07:46:55.150Z,3730
2022-09-21T07:48:55.322Z,3499
2022-09-21T07:49:55.132Z,4106
2022-09-21T07:50:55.150Z,3249
2022-09-21T07:51:55.174Z,3258
2022-09-21T07:53:55.327Z,4150
2022-09-21T07:54:55.149Z,3161
2022-09-21T07:55:55.154Z,3122
2022-09-21T07:56:55.176Z,3057
2022-09-21T07:58:55.408Z,4130
2022-09-21T07:59:55.123Z,3116
2022-09-21T08:00:55.211Z,4178
2022-09-21T08:01:55.161Z,4118
2022-09-21T08:03:55.354Z,4166
2022-09-21T08:04:55.133Z,3519
2022-09-21T08:05:55.181Z,3083
2022-09-21T08:06:55.157Z,3161
2022-09-21T08:08:57.644Z,3161
2022-09-21T08:09:55.161Z,3865
2022-09-21T08:10:55.164Z,3952
2022-09-21T08:11:55.140Z,3961
2022-09-21T08:13:55.406Z,3040
2022-09-21T08:14:55.134Z,3813
2022-09-21T08:15:55.193Z,2839
2022-09-21T08:16:55.140Z,4003
2022-09-21T08:18:55.338Z,3783
2022-09-21T08:19:55.155Z,3895
2022-09-21T08:20:55.167Z,3006
2022-09-21T08:21:57.723Z,2998
2022-09-21T08:23:55.339Z,3906
2022-09-21T08:24:55.163Z,3340
2022-09-21T08:25:55.165Z,3311
2022-09-21T08:26:55.144Z,2427
2022-09-21T08:28:55.401Z,3632
2022-09-21T08:29:55.144Z,2616
2022-09-21T08:30:55.171Z,2469
2022-09-21T08:31:55.203Z,3143
2022-09-21T08:33:55.367Z,3368
2022-09-21T08:34:55.177Z,2635
2022-09-21T08:35:55.176Z,2589
2022-09-21T08:36:55.615Z,2516
2022-09-21T08:38:55.364Z,3284
2022-09-21T08:39:55.167Z,3709
2022-09-21T08:40:55.184Z,3302
2022-09-21T08:41:55.163Z,1797
2022-09-21T08:43:55.379Z,3349
2022-09-21T08:44:55.151Z,2643
2022-09-21T08:45:55.164Z,3499
2022-09-21T08:46:55.240Z,2965
2022-09-21T08:48:55.358Z,2704
2022-09-21T08:49:55.181Z,3403
2022-09-21T08:50:55.149Z,3221
2022-09-21T08:51:55.173Z,2488
2022-09-21T08:53:55.430Z,3403
2022-09-21T08:54:55.175Z,2696
2022-09-21T08:55:55.160Z,3607
2022-09-21T08:57:04.763Z,3597
2022-09-21T08:58:55.366Z,3519
2022-09-21T08:59:55.184Z,3660
2022-09-21T09:00:55.202Z,3688
2022-09-21T09:01:55.210Z,2965
2022-09-21T09:03:55.424Z,3762
2022-09-21T09:04:55.202Z,2927
2022-09-21T09:05:55.196Z,2763
2022-09-21T09:06:55.192Z,3519
2022-09-21T09:08:55.398Z,3311
2022-09-21T09:09:55.176Z,3751
2022-09-21T09:10:55.165Z,3843
2022-09-21T09:11:55.146Z,3930
2022-09-21T09:13:55.377Z,2911
2022-09-21T09:14:55.181Z,2650
2022-09-21T09:15:55.246Z,3688
2022-09-21T09:16:55.193Z,3854
2022-09-21T09:18:55.398Z,3660
2022-09-21T09:19:55.175Z,3411
2022-09-21T09:20:55.207Z,3194
2022-09-21T09:21:55.183Z,2457
2022-09-21T09:23:55.416Z,2509
2022-09-21T09:24:55.166Z,3622
2022-09-21T09:25:55.189Z,3143
2022-09-21T09:26:55.199Z,2203
2022-09-21T09:28:55.364Z,3549
2022-09-21T09:29:57.364Z,3258
2022-09-21T09:30:55.190Z,2565
2022-09-21T09:31:55.192Z,2578
2022-09-21T09:33:55.457Z,2457
2022-09-21T09:34:55.186Z,2911
2022-09-21T09:35:55.184Z,2571
2022-09-21T09:36:58.577Z,3074
2022-09-21T09:38:55.378Z,2158
2022-09-21T09:39:55.207Z,2934
2022-09-21T09:40:55.169Z,2328
2022-09-21T09:41:55.211Z,2349
2022-09-21T09:43:55.369Z,2942
2022-09-21T09:44:55.169Z,2601
2022-09-21T09:45:55.236Z,3122
2022-09-21T09:46:55.261Z,3284
2022-09-21T09:48:55.387Z,2483
2022-09-21T09:49:55.198Z,2328
2022-09-21T09:50:55.185Z,2302
2022-09-21T09:51:55.213Z,3057
2022-09-21T09:53:55.400Z,2408
2022-09-21T09:54:55.208Z,2064
2022-09-21T09:55:55.279Z,2717
2022-09-21T09:56:55.184Z,2778
2022-09-21T09:58:55.390Z,2628
2022-09-21T09:59:55.208Z,1763
2022-09-21T10:00:55.175Z,1984
2022-09-21T10:01:55.236Z,2012
2022-09-21T10:03:55.442Z,2643
2022-09-21T10:04:55.206Z,2469
2022-09-21T10:05:55.251Z,2558
2022-09-21T10:06:55.192Z,1916
2022-09-21T10:08:55.405Z,1920
2022-09-21T10:09:55.197Z,2635
2022-09-21T10:10:55.193Z,2571
2022-09-21T10:11:55.175Z,2289
2022-09-21T10:13:55.400Z,1803
2022-09-21T10:14:55.179Z,2283
2022-09-21T10:15:55.380Z,1836
2022-09-21T10:16:55.213Z,2197
2022-09-21T10:18:55.443Z,1650
2022-09-21T10:19:55.215Z,2088
2022-09-21T10:20:55.195Z,1857
2022-09-21T10:21:55.222Z,1958
2022-09-21T10:23:55.458Z,1905
2022-09-21T10:24:55.193Z,2088
2022-09-21T10:25:55.319Z,2140
2022-09-21T10:26:55.218Z,2234
2022-09-21T10:28:55.463Z,1687
2022-09-21T10:29:55.213Z,1381
2022-09-21T10:30:55.244Z,1519
2022-09-21T10:31:55.220Z,1627
2022-09-21T10:33:55.565Z,1434
2022-09-21T10:34:55.202Z,1827
2022-09-21T10:35:55.198Z,1366
2022-09-21T10:36:55.211Z,1366
2022-09-21T10:38:55.434Z,1691
2022-09-21T10:39:55.230Z,1710
2022-09-21T10:40:55.190Z,1691
2022-09-21T10:41:55.202Z,1853
2022-09-21T10:43:55.399Z,1251
2022-09-21T10:44:55.195Z,1154
2022-09-21T10:45:55.375Z,1258
2022-09-21T10:48:55.463Z,1177
2022-09-21T10:49:55.245Z,1623
2022-09-21T10:50:55.235Z,1113
2022-09-21T10:51:55.202Z,1160
2022-09-21T10:53:55.450Z,1434
2022-09-21T10:54:55.222Z,1087
2022-09-21T10:56:11.647Z,1285
2022-09-21T10:56:55.222Z,1451
2022-09-21T10:58:55.426Z,1300
2022-09-21T10:59:55.236Z,1344
2022-09-21T11:00:55.250Z,1358
2022-09-21T11:01:55.315Z,1419
2022-09-21T11:03:55.459Z,1018
2022-09-21T11:04:55.270Z,1351
2022-09-21T11:05:55.238Z,1347
2022-09-21T11:06:55.237Z,908
2022-09-21T11:08:55.437Z,991
2022-09-21T11:09:55.206Z,1107
2022-09-21T11:10:55.233Z,1483
2022-09-21T11:11:55.208Z,1404
2022-09-21T11:13:55.420Z,1455
2022-09-21T11:14:55.218Z,1248
2022-09-21T11:15:55.264Z,970
2022-09-21T11:16:55.246Z,950
2022-09-21T11:18:55.466Z,842
2022-09-21T11:19:55.245Z,1275
2022-09-21T11:20:55.247Z,1124
2022-09-21T11:21:55.248Z,1279
2022-09-21T11:23:55.438Z,1275
2022-09-21T11:24:55.238Z,962
2022-09-21T11:25:55.248Z,952
2022-09-21T11:26:55.252Z,972
2022-09-21T11:28:55.532Z,1373
2022-09-21T11:29:55.250Z,1238
2022-09-21T11:30:55.351Z,1105
2022-09-21T11:31:55.262Z,1296
2022-09-21T11:33:55.489Z,977
2022-09-21T11:34:55.256Z,1041
2022-09-21T11:35:55.247Z,1041
2022-09-21T11:36:55.258Z,981
2022-09-21T11:38:55.444Z,1171
2022-09-21T11:39:55.220Z,1067
2022-09-21T11:40:55.252Z,1393
2022-09-21T11:41:55.242Z,1330
2022-09-21T11:43:55.434Z,1303
2022-09-21T11:44:55.248Z,1129
2022-09-21T11:45:55.274Z,946
2022-09-21T11:46:55.263Z,1129
2022-09-21T11:48:55.491Z,1408
2022-09-21T11:50:07.615Z,1127
2022-09-21T11:50:55.292Z,1439
2022-09-21T11:51:56.077Z,1141
2022-09-21T11:53:55.444Z,1515
2022-09-21T11:54:55.234Z,1369
2022-09-21T11:55:55.285Z,1584
2022-09-21T11:56:55.244Z,1216
2022-09-21T11:58:55.527Z,1661
2022-09-21T11:59:55.258Z,1242
2022-09-21T12:00:55.271Z,1213
2022-09-21T12:01:55.267Z,1222
2022-09-21T12:03:55.472Z,1741
2022-09-21T12:04:55.260Z,1853
2022-09-21T12:05:55.274Z,1351
2022-09-21T12:06:55.253Z,1786
2022-09-21T12:08:55.447Z,2012
2022-09-21T12:09:55.263Z,1502
2022-09-21T12:10:55.254Z,1532
2022-09-21T12:11:55.267Z,2104
2022-09-21T12:13:55.464Z,1741
2022-09-21T12:14:55.267Z,2033
2022-09-21T12:15:55.255Z,1945
2022-09-21T12:16:55.273Z,1990
2022-09-21T12:18:55.488Z,1650
2022-09-21T12:19:55.297Z,2134
2022-09-21T12:20:55.266Z,2088
2022-09-21T12:21:55.247Z,2110
2022-09-21T12:23:55.438Z,2307
2022-09-21T12:24:55.271Z,2070
2022-09-21T12:25:55.275Z,2442
2022-09-21T12:26:55.258Z,1853
2022-09-21T12:28:55.451Z,1822
2022-09-21T12:29:55.282Z,2483
2022-09-21T12:30:58.503Z,1931
2022-09-21T12:31:55.277Z,2558
2022-09-21T12:33:55.497Z,2394
2022-09-21T12:34:55.290Z,1974
2022-09-21T12:35:55.295Z,2457
2022-09-21T12:36:55.307Z,2516
2022-09-21T12:38:55.465Z,2571
2022-09-21T12:39:55.282Z,2401
2022-09-21T12:40:55.290Z,1916
2022-09-21T12:41:55.279Z,2374
2022-09-21T12:43:55.473Z,2427
2022-09-21T12:44:55.283Z,2434
2022-09-21T12:45:55.306Z,1940
2022-09-21T12:46:55.263Z,2457
2022-09-21T12:48:55.451Z,2272
2022-09-21T12:49:55.282Z,1827
2022-09-21T12:50:55.249Z,2394
2022-09-21T12:51:55.283Z,2442
2022-09-21T12:53:55.466Z,2551
2022-09-21T12:54:55.287Z,2158
2022-09-21T12:55:55.255Z,2247
2022-09-21T12:56:55.286Z,1635
2022-09-21T12:58:55.511Z,2186
2022-09-21T12:59:55.250Z,2070
2022-09-21T13:00:55.425Z,1673
2022-09-21T13:01:57.277Z,2289
2022-09-21T13:03:55.499Z,1894
2022-09-21T13:04:55.287Z,1706
2022-09-21T13:05:55.303Z,2158
2022-09-21T13:06:55.301Z,2082
2022-09-21T13:08:55.465Z,2272
2022-09-21T13:09:55.277Z,2307
2022-09-21T13:10:55.357Z,2116
2022-09-21T13:11:55.312Z,2413
2022-09-21T13:13:55.481Z,1936
2022-09-21T13:14:55.296Z,1589
2022-09-21T13:15:55.298Z,2104
2022-09-21T13:16:55.305Z,2098
2022-09-21T13:18:55.607Z,2104
2022-09-21T13:19:55.294Z,2134
2022-09-21T13:20:55.304Z,2104
2022-09-21T13:21:55.303Z,1483
2022-09-21T13:23:55.479Z,1768
2022-09-21T13:24:55.301Z,1879
2022-09-21T13:25:55.273Z,1369
2022-09-21T13:26:55.291Z,1110
2022-09-21T13:28:55.487Z,1969
2022-09-21T13:29:55.307Z,1857
2022-09-21T13:30:55.313Z,1832
2022-09-21T13:31:55.352Z,1791
2022-09-21T13:33:55.515Z,1758
2022-09-21T13:34:55.300Z,1203
2022-09-21T13:35:55.323Z,1427
2022-09-21T13:36:55.316Z,1846
2022-09-21T13:38:55.495Z,1853
2022-09-21T13:39:55.311Z,1565
2022-09-21T13:40:55.278Z,1867
2022-09-21T13:42:03.090Z,1862
2022-09-21T13:43:56.010Z,1846
2022-09-21T13:44:55.279Z,1720
2022-09-21T13:45:55.340Z,1385
2022-09-21T13:46:55.312Z,1248
2022-09-21T13:48:55.483Z,1584
2022-09-21T13:49:59.830Z,1565
2022-09-21T13:50:55.324Z,842
2022-09-21T13:51:55.323Z,1141
2022-09-21T13:53:55.549Z,1439
2022-09-21T13:54:55.316Z,1268
2022-09-21T13:55:55.302Z,1216
2022-09-21T13:56:55.321Z,1307
2022-09-21T13:58:55.485Z,1160
2022-09-21T13:59:55.315Z,1129
2022-09-21T14:00:55.333Z,1127
2022-09-21T14:01:55.363Z,1084
2022-09-21T14:03:55.486Z,1129
2022-09-21T14:04:55.317Z,1209
2022-09-21T14:05:55.315Z,1076
2022-09-21T14:06:55.290Z,1154
2022-09-21T14:08:55.497Z,1540
2022-09-21T14:09:55.324Z,1213
2022-09-21T14:10:55.294Z,1419
2022-09-21T14:11:55.319Z,1381
2022-09-21T14:13:55.559Z,1385
2022-09-21T14:14:55.308Z,1102
2022-09-21T14:15:55.393Z,1389
2022-09-21T14:16:55.327Z,1296
2022-09-21T14:18:55.497Z,1064
2022-09-21T14:19:55.340Z,1459
2022-09-21T14:20:55.326Z,1451
2022-09-21T14:21:55.338Z,1443
2022-09-21T14:23:55.545Z,1459
2022-09-21T14:24:55.337Z,934
2022-09-21T14:25:55.334Z,1385
2022-09-21T14:26:55.345Z,1064
2022-09-21T14:28:55.533Z,1084
2022-09-21T14:29:55.343Z,1400
2022-09-21T14:30:55.356Z,1389
2022-09-21T14:31:55.393Z,1055
2022-09-21T14:33:55.527Z,1090
2022-09-21T14:34:55.341Z,1187
2022-09-21T14:35:55.329Z,1135
2022-09-21T14:36:55.341Z,1200
2022-09-21T14:38:55.522Z,899
2022-09-21T14:39:55.348Z,1358
2022-09-21T14:40:55.308Z,1296
2022-09-21T14:41:55.352Z,1279
2022-09-21T14:43:55.510Z,1265
2022-09-21T14:44:55.336Z,1519
2022-09-21T14:45:55.314Z,1478
2022-09-21T14:46:55.414Z,1347
2022-09-21T14:48:55.540Z,1141
2022-09-21T14:49:55.313Z,1064
2022-09-21T14:50:55.368Z,1052
2022-09-21T14:52:04.172Z,1029
2022-09-21T14:53:55.592Z,1013
2022-09-21T14:54:55.312Z,1279
2022-09-21T14:55:55.349Z,957
2022-09-21T14:56:55.307Z,993
2022-09-21T14:58:55.515Z,1272
2022-09-21T14:59:55.379Z,1333
2022-09-21T15:00:55.390Z,1337
2022-09-21T15:01:55.370Z,1316
2022-09-21T15:03:55.594Z,1055
2022-09-21T15:04:55.310Z,890
2022-09-21T15:05:55.350Z,881
2022-09-21T15:06:55.360Z,831
2022-09-21T15:08:55.545Z,892
2022-09-21T15:09:55.376Z,1248
2022-09-21T15:10:55.572Z,927
2022-09-21T15:11:55.363Z,941
2022-09-21T15:13:55.519Z,849
2022-09-21T15:14:55.353Z,904
2022-09-21T15:15:55.352Z,1203
2022-09-21T15:16:55.348Z,1168
2022-09-21T15:18:55.552Z,1055
2022-09-21T15:19:55.368Z,923
2022-09-21T15:20:55.322Z,1238
2022-09-21T15:21:55.329Z,918
2022-09-21T15:23:55.591Z,918
2022-09-21T15:24:55.342Z,1102
2022-09-21T15:25:55.338Z,1116
2022-09-21T15:26:55.355Z,842
2022-09-21T15:29:09.129Z,1090
2022-09-21T15:29:55.343Z,881
2022-09-21T15:30:55.360Z,890
2022-09-21T15:31:55.378Z,1187
2022-09-21T15:33:55.548Z,1113
2022-09-21T15:34:55.358Z,1258
2022-09-21T15:35:55.366Z,1258
2022-09-21T15:36:55.372Z,1203
2022-09-21T15:38:55.597Z,1011
2022-09-21T15:39:55.335Z,899
2022-09-21T15:40:56.189Z,892
2022-09-21T15:41:55.342Z,1138
2022-09-21T15:43:55.550Z,1047
2022-09-21T15:44:55.375Z,1132
2022-09-21T15:45:55.367Z,1157
2022-09-21T15:46:55.422Z,1160
2022-09-21T15:48:58.537Z,1174
2022-09-21T15:49:55.374Z,962
2022-09-21T15:50:55.384Z,960
2022-09-21T15:51:55.371Z,863
2022-09-21T15:53:55.582Z,962
2022-09-21T15:54:55.374Z,1478
2022-09-21T15:55:55.383Z,1463
2022-09-21T15:56:55.381Z,1397
2022-09-21T15:58:55.565Z,1096
2022-09-21T15:59:55.362Z,1129
2022-09-21T16:00:55.414Z,1107
2022-09-21T16:01:55.388Z,1419
2022-09-21T16:03:57.117Z,1397
2022-09-21T16:04:55.371Z,1614
2022-09-21T16:05:55.357Z,1268
2022-09-21T16:06:55.372Z,1614
2022-09-21T16:08:55.613Z,1715
2022-09-21T16:09:55.377Z,1879
2022-09-21T16:10:55.353Z,2240
2022-09-21T16:11:55.386Z,1736
2022-09-21T16:13:55.569Z,2088
2022-09-21T16:14:55.395Z,1289
2022-09-21T16:15:55.390Z,2296
2022-09-21T16:16:55.380Z,2240
2022-09-21T16:18:55.586Z,2367
2022-09-21T16:19:55.365Z,1558
2022-09-21T16:20:59.526Z,2255
2022-09-21T16:21:55.390Z,2247
2022-09-21T16:23:55.598Z,2374
2022-09-21T16:24:55.377Z,2140
2022-09-21T16:25:55.373Z,1763
2022-09-21T16:26:55.371Z,2537
2022-09-21T16:28:55.554Z,2571
2022-09-21T16:29:55.380Z,2571
2022-09-21T16:30:55.412Z,2038
2022-09-21T16:31:55.444Z,2786
2022-09-21T16:33:55.564Z,2877
2022-09-21T16:34:55.393Z,2717
2022-09-21T16:35:55.367Z,2809
2022-09-21T16:36:55.391Z,2349
2022-09-21T16:38:55.590Z,2509
2022-09-21T16:39:55.390Z,2537
2022-09-21T16:40:55.394Z,3311
2022-09-21T16:41:55.417Z,2717